sensor_id;sensor_type;location;lat;lon;timestamp;temperature;humidity
32753;DHT22;19121;52.428;10.816;2023-12-20T00:01:19;19.10;47.60
32753;DHT22;19121;52.428;10.816;2023-12-20T00:03:44;19.10;47.60
32753;DHT22;19121;52.428;10.816;2023-12-20T00:06:10;19.10;47.60
32753;DHT22;19121;52.428;10.816;2023-12-20T00:08:36;19.10;47.60
32753;DHT22;19121;52.428;10.816;2023-12-20T00:11:01;19.10;47.60
32753;DHT22;19121;52.428;10.816;2023-12-20T00:13:27;19.10;47.60
32753;DHT22;19121;52.428;10.816;2023-12-20T00:15:52;19.00;47.50
32753;DHT22;19121;52.428;10.816;2023-12-20T00:18:18;19.10;47.60
32753;DHT22;19121;52.428;10.816;2023-12-20T00:20:44;19.00;47.50
32753;DHT22;19121;52.428;10.816;2023-12-20T00:23:09;19.10;47.50
32753;DHT22;19121;52.428;10.816;2023-12-20T00:25:35;19.00;47.50
32753;DHT22;19121;52.428;10.816;2023-12-20T00:28:00;19.10;47.60
32753;DHT22;19121;52.428;10.816;2023-12-20T00:30:26;19.00;47.60
32753;DHT22;19121;52.428;10.816;2023-12-20T00:32:51;19.00;47.50
32753;DHT22;19121;52.428;10.816;2023-12-20T00:35:17;19.00;47.50
32753;DHT22;19121;52.428;10.816;2023-12-20T00:37:42;19.00;47.50
32753;DHT22;19121;52.428;10.816;2023-12-20T00:40:08;19.00;47.50
32753;DHT22;19121;52.428;10.816;2023-12-20T00:42:34;19.00;47.60
32753;DHT22;19121;52.428;10.816;2023-12-20T00:44:59;19.00;47.60
32753;DHT22;19121;52.428;10.816;2023-12-20T00:47:25;19.00;47.60
32753;DHT22;19121;52.428;10.816;2023-12-20T00:49:51;19.00;47.60
32753;DHT22;19121;52.428;10.816;2023-12-20T00:52:16;19.00;47.60
32753;DHT22;19121;52.428;10.816;2023-12-20T00:54:47;19.00;47.60
32753;DHT22;19121;52.428;10.816;2023-12-20T00:57:12;18.90;47.50
32753;DHT22;19121;52.428;10.816;2023-12-20T00:59:38;19.00;47.60
32753;DHT22;19121;52.428;10.816;2023-12-20T01:02:03;19.00;47.60
32753;DHT22;19121;52.428;10.816;2023-12-20T01:04:29;18.90;47.60
32753;DHT22;19121;52.428;10.816;2023-12-20T01:06:54;19.00;47.60
32753;DHT22;19121;52.428;10.816;2023-12-20T01:09:20;19.00;47.60
32753;DHT22;19121;52.428;10.816;2023-12-20T01:11:48;19.00;47.60
32753;DHT22;19121;52.428;10.816;2023-12-20T01:14:14;19.00;47.60
32753;DHT22;19121;52.428;10.816;2023-12-20T01:16:39;18.90;47.50
32753;DHT22;19121;52.428;10.816;2023-12-20T01:19:05;19.00;47.60
32753;DHT22;19121;52.428;10.816;2023-12-20T01:21:30;19.00;47.60
32753;DHT22;19121;52.428;10.816;2023-12-20T01:23:56;18.90;47.60
32753;DHT22;19121;52.428;10.816;2023-12-20T01:26:21;18.90;47.50
32753;DHT22;19121;52.428;10.816;2023-12-20T01:28:47;18.90;47.60
32753;DHT22;19121;52.428;10.816;2023-12-20T01:31:12;18.90;47.60
32753;DHT22;19121;52.428;10.816;2023-12-20T01:33:38;18.90;47.60
32753;DHT22;19121;52.428;10.816;2023-12-20T01:36:04;18.90;47.60
32753;DHT22;19121;52.428;10.816;2023-12-20T01:38:29;18.90;47.60
32753;DHT22;19121;52.428;10.816;2023-12-20T01:40:55;18.90;47.60
32753;DHT22;19121;52.428;10.816;2023-12-20T01:43:20;18.90;47.60
32753;DHT22;19121;52.428;10.816;2023-12-20T01:45:46;18.90;47.60
32753;DHT22;19121;52.428;10.816;2023-12-20T01:48:12;18.90;47.60
32753;DHT22;19121;52.428;10.816;2023-12-20T01:50:37;18.90;47.60
32753;DHT22;19121;52.428;10.816;2023-12-20T01:53:04;18.90;47.60
32753;DHT22;19121;52.428;10.816;2023-12-20T01:55:31;18.90;47.60
32753;DHT22;19121;52.428;10.816;2023-12-20T01:57:57;18.80;47.50
32753;DHT22;19121;52.428;10.816;2023-12-20T02:00:23;18.90;47.60
32753;DHT22;19121;52.428;10.816;2023-12-20T02:02:49;18.90;47.60
32753;DHT22;19121;52.428;10.816;2023-12-20T02:05:15;18.90;47.60
32753;DHT22;19121;52.428;10.816;2023-12-20T02:07:41;18.90;47.60
32753;DHT22;19121;52.428;10.816;2023-12-20T02:10:07;18.90;47.50
32753;DHT22;19121;52.428;10.816;2023-12-20T02:12:33;18.90;47.60
32753;DHT22;19121;52.428;10.816;2023-12-20T02:14:58;18.80;47.50
32753;DHT22;19121;52.428;10.816;2023-12-20T02:17:24;18.90;47.60
32753;DHT22;19121;52.428;10.816;2023-12-20T02:19:50;18.80;47.50
32753;DHT22;19121;52.428;10.816;2023-12-20T02:22:16;18.80;47.50
32753;DHT22;19121;52.428;10.816;2023-12-20T02:24:41;18.80;47.50
32753;DHT22;19121;52.428;10.816;2023-12-20T02:27:07;18.80;47.50
32753;DHT22;19121;52.428;10.816;2023-12-20T02:29:35;18.80;47.50
32753;DHT22;19121;52.428;10.816;2023-12-20T02:32:01;18.80;47.60
32753;DHT22;19121;52.428;10.816;2023-12-20T02:34:28;18.80;47.50
32753;DHT22;19121;52.428;10.816;2023-12-20T02:36:55;18.80;47.50
32753;DHT22;19121;52.428;10.816;2023-12-20T02:39:21;18.80;47.50
32753;DHT22;19121;52.428;10.816;2023-12-20T02:41:47;18.80;47.50
32753;DHT22;19121;52.428;10.816;2023-12-20T02:44:13;18.80;47.50
32753;DHT22;19121;52.428;10.816;2023-12-20T02:46:39;18.80;47.50
32753;DHT22;19121;52.428;10.816;2023-12-20T02:49:05;18.80;47.50
32753;DHT22;19121;52.428;10.816;2023-12-20T02:51:31;18.80;47.50
32753;DHT22;19121;52.428;10.816;2023-12-20T02:53:56;18.80;47.50
32753;DHT22;19121;52.428;10.816;2023-12-20T02:56:22;18.70;47.50
32753;DHT22;19121;52.428;10.816;2023-12-20T02:58:47;18.80;47.50
32753;DHT22;19121;52.428;10.816;2023-12-20T03:01:12;18.70;47.50
32753;DHT22;19121;52.428;10.816;2023-12-20T03:03:38;18.70;47.50
32753;DHT22;19121;52.428;10.816;2023-12-20T03:06:03;18.70;47.50
32753;DHT22;19121;52.428;10.816;2023-12-20T03:08:29;18.70;47.40
32753;DHT22;19121;52.428;10.816;2023-12-20T03:10:54;18.70;47.30
32753;DHT22;19121;52.428;10.816;2023-12-20T03:13:20;18.70;47.30
32753;DHT22;19121;52.428;10.816;2023-12-20T03:15:45;18.80;47.30
32753;DHT22;19121;52.428;10.816;2023-12-20T03:18:11;18.80;47.30
32753;DHT22;19121;52.428;10.816;2023-12-20T03:20:37;18.80;47.20
32753;DHT22;19121;52.428;10.816;2023-12-20T03:23:02;18.80;47.80
32753;DHT22;19121;52.428;10.816;2023-12-20T03:25:28;18.80;47.10
32753;DHT22;19121;52.428;10.816;2023-12-20T03:27:53;18.90;47.10
32753;DHT22;19121;52.428;10.816;2023-12-20T03:30:19;18.80;47.00
32753;DHT22;19121;52.428;10.816;2023-12-20T03:32:45;18.90;47.00
32753;DHT22;19121;52.428;10.816;2023-12-20T03:35:10;18.90;47.00
32753;DHT22;19121;52.428;10.816;2023-12-20T03:37:36;18.90;47.00
32753;DHT22;19121;52.428;10.816;2023-12-20T03:40:02;19.00;47.00
32753;DHT22;19121;52.428;10.816;2023-12-20T03:42:28;18.90;46.90
32753;DHT22;19121;52.428;10.816;2023-12-20T03:44:53;19.00;46.90
32753;DHT22;19121;52.428;10.816;2023-12-20T03:47:18;19.00;46.90
32753;DHT22;19121;52.428;10.816;2023-12-20T03:49:44;19.00;46.80
32753;DHT22;19121;52.428;10.816;2023-12-20T03:52:09;19.00;46.80
32753;DHT22;19121;52.428;10.816;2023-12-20T03:54:35;19.00;46.70
32753;DHT22;19121;52.428;10.816;2023-12-20T03:57:01;19.00;46.70
32753;DHT22;19121;52.428;10.816;2023-12-20T03:59:26;19.10;46.80
32753;DHT22;19121;52.428;10.816;2023-12-20T04:01:52;19.10;46.80
32753;DHT22;19121;52.428;10.816;2023-12-20T04:04:17;19.10;46.70
32753;DHT22;19121;52.428;10.816;2023-12-20T04:06:43;19.10;46.70
32753;DHT22;19121;52.428;10.816;2023-12-20T04:09:08;19.10;46.70
32753;DHT22;19121;52.428;10.816;2023-12-20T04:11:37;19.10;46.70
32753;DHT22;19121;52.428;10.816;2023-12-20T04:14:02;19.10;46.60
32753;DHT22;19121;52.428;10.816;2023-12-20T04:16:30;19.10;46.70
32753;DHT22;19121;52.428;10.816;2023-12-20T04:18:55;19.10;46.60
32753;DHT22;19121;52.428;10.816;2023-12-20T04:21:21;19.10;46.60
32753;DHT22;19121;52.428;10.816;2023-12-20T04:23:46;19.10;46.60
32753;DHT22;19121;52.428;10.816;2023-12-20T04:26:12;19.10;46.60
32753;DHT22;19121;52.428;10.816;2023-12-20T04:28:37;19.20;46.60
32753;DHT22;19121;52.428;10.816;2023-12-20T04:31:03;19.10;46.50
32753;DHT22;19121;52.428;10.816;2023-12-20T04:33:28;19.20;46.60
32753;DHT22;19121;52.428;10.816;2023-12-20T04:35:54;19.20;46.60
32753;DHT22;19121;52.428;10.816;2023-12-20T04:38:19;19.20;46.60
32753;DHT22;19121;52.428;10.816;2023-12-20T04:40:45;19.20;46.50
32753;DHT22;19121;52.428;10.816;2023-12-20T04:43:10;19.20;46.50
32753;DHT22;19121;52.428;10.816;2023-12-20T04:45:36;19.20;46.50
32753;DHT22;19121;52.428;10.816;2023-12-20T04:48:02;19.20;46.50
32753;DHT22;19121;52.428;10.816;2023-12-20T04:50:27;19.20;46.50
32753;DHT22;19121;52.428;10.816;2023-12-20T04:52:53;19.20;46.50
32753;DHT22;19121;52.428;10.816;2023-12-20T04:55:19;19.20;46.50
32753;DHT22;19121;52.428;10.816;2023-12-20T04:57:44;19.20;46.50
32753;DHT22;19121;52.428;10.816;2023-12-20T05:00:10;19.20;46.50
32753;DHT22;19121;52.428;10.816;2023-12-20T05:02:36;19.20;46.50
32753;DHT22;19121;52.428;10.816;2023-12-20T05:05:01;19.20;46.50
32753;DHT22;19121;52.428;10.816;2023-12-20T05:07:27;19.20;46.50
32753;DHT22;19121;52.428;10.816;2023-12-20T05:09:52;19.20;46.40
32753;DHT22;19121;52.428;10.816;2023-12-20T05:12:18;19.20;46.40
32753;DHT22;19121;52.428;10.816;2023-12-20T05:14:44;19.20;46.40
32753;DHT22;19121;52.428;10.816;2023-12-20T05:17:09;19.20;46.30
32753;DHT22;19121;52.428;10.816;2023-12-20T05:19:35;19.30;46.40
32753;DHT22;19121;52.428;10.816;2023-12-20T05:22:01;19.20;46.30
32753;DHT22;19121;52.428;10.816;2023-12-20T05:24:27;19.30;46.40
32753;DHT22;19121;52.428;10.816;2023-12-20T05:26:52;19.30;46.40
32753;DHT22;19121;52.428;10.816;2023-12-20T05:29:18;19.20;46.30
32753;DHT22;19121;52.428;10.816;2023-12-20T05:31:43;19.30;46.30
32753;DHT22;19121;52.428;10.816;2023-12-20T05:34:09;19.30;46.30
32753;DHT22;19121;52.428;10.816;2023-12-20T05:36:34;19.30;46.30
32753;DHT22;19121;52.428;10.816;2023-12-20T05:39:00;19.30;46.30
32753;DHT22;19121;52.428;10.816;2023-12-20T05:41:25;19.30;46.30
32753;DHT22;19121;52.428;10.816;2023-12-20T05:43:51;19.30;46.30
32753;DHT22;19121;52.428;10.816;2023-12-20T05:46:16;19.30;46.30
32753;DHT22;19121;52.428;10.816;2023-12-20T05:48:42;19.30;46.20
32753;DHT22;19121;52.428;10.816;2023-12-20T05:51:07;19.30;46.20
32753;DHT22;19121;52.428;10.816;2023-12-20T05:53:33;19.30;46.20
32753;DHT22;19121;52.428;10.816;2023-12-20T05:55:58;19.30;46.20
32753;DHT22;19121;52.428;10.816;2023-12-20T05:58:25;19.30;46.20
32753;DHT22;19121;52.428;10.816;2023-12-20T06:00:50;19.30;46.20
32753;DHT22;19121;52.428;10.816;2023-12-20T06:03:15;19.30;46.20
32753;DHT22;19121;52.428;10.816;2023-12-20T06:05:41;19.30;46.10
32753;DHT22;19121;52.428;10.816;2023-12-20T06:08:06;19.40;46.20
32753;DHT22;19121;52.428;10.816;2023-12-20T06:10:32;19.30;46.10
32753;DHT22;19121;52.428;10.816;2023-12-20T06:12:57;19.40;46.20
32753;DHT22;19121;52.428;10.816;2023-12-20T06:15:24;19.40;46.10
32753;DHT22;19121;52.428;10.816;2023-12-20T06:17:50;19.40;46.10
32753;DHT22;19121;52.428;10.816;2023-12-20T06:20:15;19.30;46.10
32753;DHT22;19121;52.428;10.816;2023-12-20T06:22:41;19.40;46.10
32753;DHT22;19121;52.428;10.816;2023-12-20T06:25:06;19.40;46.10
32753;DHT22;19121;52.428;10.816;2023-12-20T06:27:32;19.30;46.00
32753;DHT22;19121;52.428;10.816;2023-12-20T06:29:57;19.40;46.10
32753;DHT22;19121;52.428;10.816;2023-12-20T06:32:23;19.40;46.10
32753;DHT22;19121;52.428;10.816;2023-12-20T06:34:49;19.40;46.10
32753;DHT22;19121;52.428;10.816;2023-12-20T06:37:15;19.40;46.10
32753;DHT22;19121;52.428;10.816;2023-12-20T06:39:40;19.40;46.10
32753;DHT22;19121;52.428;10.816;2023-12-20T06:42:06;19.40;46.00
32753;DHT22;19121;52.428;10.816;2023-12-20T06:44:31;19.40;46.10
32753;DHT22;19121;52.428;10.816;2023-12-20T06:46:57;19.40;46.10
32753;DHT22;19121;52.428;10.816;2023-12-20T06:49:23;19.40;46.10
32753;DHT22;19121;52.428;10.816;2023-12-20T06:51:48;19.40;46.10
32753;DHT22;19121;52.428;10.816;2023-12-20T06:54:14;19.40;46.00
32753;DHT22;19121;52.428;10.816;2023-12-20T06:56:39;19.40;46.10
32753;DHT22;19121;52.428;10.816;2023-12-20T06:59:04;19.40;46.10
32753;DHT22;19121;52.428;10.816;2023-12-20T07:01:30;19.40;46.10
32753;DHT22;19121;52.428;10.816;2023-12-20T07:03:55;19.40;46.10
32753;DHT22;19121;52.428;10.816;2023-12-20T07:06:21;19.40;46.20
32753;DHT22;19121;52.428;10.816;2023-12-20T07:08:46;19.50;46.20
32753;DHT22;19121;52.428;10.816;2023-12-20T07:11:12;19.50;46.20
32753;DHT22;19121;52.428;10.816;2023-12-20T07:13:37;19.50;46.20
32753;DHT22;19121;52.428;10.816;2023-12-20T07:16:03;19.50;46.20
32753;DHT22;19121;52.428;10.816;2023-12-20T07:18:28;19.50;46.30
32753;DHT22;19121;52.428;10.816;2023-12-20T07:20:54;19.50;46.30
32753;DHT22;19121;52.428;10.816;2023-12-20T07:23:20;19.50;46.30
32753;DHT22;19121;52.428;10.816;2023-12-20T07:25:46;19.50;46.30
32753;DHT22;19121;52.428;10.816;2023-12-20T07:28:12;19.50;46.30
32753;DHT22;19121;52.428;10.816;2023-12-20T07:30:37;19.50;46.40
32753;DHT22;19121;52.428;10.816;2023-12-20T07:33:03;19.50;46.30
32753;DHT22;19121;52.428;10.816;2023-12-20T07:35:28;19.50;46.30
32753;DHT22;19121;52.428;10.816;2023-12-20T07:37:54;19.60;46.40
32753;DHT22;19121;52.428;10.816;2023-12-20T07:40:19;19.60;46.50
32753;DHT22;19121;52.428;10.816;2023-12-20T07:42:45;19.60;46.60
32753;DHT22;19121;52.428;10.816;2023-12-20T07:45:10;19.60;46.70
32753;DHT22;19121;52.428;10.816;2023-12-20T07:47:37;19.60;46.80
32753;DHT22;19121;52.428;10.816;2023-12-20T07:50:02;19.60;46.80
32753;DHT22;19121;52.428;10.816;2023-12-20T07:52:29;19.60;46.80
32753;DHT22;19121;52.428;10.816;2023-12-20T07:54:54;19.60;46.90
32753;DHT22;19121;52.428;10.816;2023-12-20T07:57:20;19.70;47.00
32753;DHT22;19121;52.428;10.816;2023-12-20T07:59:45;19.60;47.00
32753;DHT22;19121;52.428;10.816;2023-12-20T08:02:11;19.60;47.00
32753;DHT22;19121;52.428;10.816;2023-12-20T08:04:36;19.60;47.00
32753;DHT22;19121;52.428;10.816;2023-12-20T08:07:03;19.60;47.00
32753;DHT22;19121;52.428;10.816;2023-12-20T08:09:28;19.70;47.10
32753;DHT22;19121;52.428;10.816;2023-12-20T08:11:54;19.70;47.20
32753;DHT22;19121;52.428;10.816;2023-12-20T08:14:19;19.60;47.20
32753;DHT22;19121;52.428;10.816;2023-12-20T08:16:45;19.70;47.90
32753;DHT22;19121;52.428;10.816;2023-12-20T08:19:10;19.70;47.30
32753;DHT22;19121;52.428;10.816;2023-12-20T08:21:36;19.80;47.20
32753;DHT22;19121;52.428;10.816;2023-12-20T08:24:01;19.90;47.10
32753;DHT22;19121;52.428;10.816;2023-12-20T08:26:27;19.90;47.00
32753;DHT22;19121;52.428;10.816;2023-12-20T08:28:52;20.00;46.80
32753;DHT22;19121;52.428;10.816;2023-12-20T08:31:18;20.10;46.60
32753;DHT22;19121;52.428;10.816;2023-12-20T08:33:44;20.20;46.60
32753;DHT22;19121;52.428;10.816;2023-12-20T08:36:10;20.20;46.40
32753;DHT22;19121;52.428;10.816;2023-12-20T08:38:36;20.30;46.30
32753;DHT22;19121;52.428;10.816;2023-12-20T08:41:01;20.30;46.10
32753;DHT22;19121;52.428;10.816;2023-12-20T08:43:28;20.40;46.10
32753;DHT22;19121;52.428;10.816;2023-12-20T08:45:54;20.30;46.00
32753;DHT22;19121;52.428;10.816;2023-12-20T08:48:19;20.40;46.00
32753;DHT22;19121;52.428;10.816;2023-12-20T08:50:45;20.30;46.10
32753;DHT22;19121;52.428;10.816;2023-12-20T08:53:11;20.40;46.10
32753;DHT22;19121;52.428;10.816;2023-12-20T08:55:37;20.40;46.20
32753;DHT22;19121;52.428;10.816;2023-12-20T08:58:02;20.40;46.10
32753;DHT22;19121;52.428;10.816;2023-12-20T09:00:28;20.50;46.10
32753;DHT22;19121;52.428;10.816;2023-12-20T09:02:54;20.40;46.00
32753;DHT22;19121;52.428;10.816;2023-12-20T09:05:20;20.40;46.20
32753;DHT22;19121;52.428;10.816;2023-12-20T09:07:45;20.30;46.30
32753;DHT22;19121;52.428;10.816;2023-12-20T09:10:11;20.30;46.40
32753;DHT22;19121;52.428;10.816;2023-12-20T09:12:36;20.30;46.60
32753;DHT22;19121;52.428;10.816;2023-12-20T09:15:05;20.20;46.60
32753;DHT22;19121;52.428;10.816;2023-12-20T09:17:30;20.20;46.70
32753;DHT22;19121;52.428;10.816;2023-12-20T09:19:56;20.20;46.80
32753;DHT22;19121;52.428;10.816;2023-12-20T09:22:22;20.10;46.80
32753;DHT22;19121;52.428;10.816;2023-12-20T09:24:47;20.20;46.90
32753;DHT22;19121;52.428;10.816;2023-12-20T09:27:13;20.10;46.90
32753;DHT22;19121;52.428;10.816;2023-12-20T09:29:38;20.10;46.90
32753;DHT22;19121;52.428;10.816;2023-12-20T09:32:03;20.10;46.90
32753;DHT22;19121;52.428;10.816;2023-12-20T09:34:29;20.10;46.90
32753;DHT22;19121;52.428;10.816;2023-12-20T09:36:55;20.10;46.90
32753;DHT22;19121;52.428;10.816;2023-12-20T09:39:20;20.10;46.90
32753;DHT22;19121;52.428;10.816;2023-12-20T09:42:04;20.10;46.90
32753;DHT22;19121;52.428;10.816;2023-12-20T09:44:31;20.10;46.80
32753;DHT22;19121;52.428;10.816;2023-12-20T09:46:57;20.10;46.80
32753;DHT22;19121;52.428;10.816;2023-12-20T09:49:22;20.10;46.70
32753;DHT22;19121;52.428;10.816;2023-12-20T09:51:50;20.10;46.70
32753;DHT22;19121;52.428;10.816;2023-12-20T09:54:16;20.10;46.60
32753;DHT22;19121;52.428;10.816;2023-12-20T09:56:42;20.10;46.60
32753;DHT22;19121;52.428;10.816;2023-12-20T09:59:07;20.10;46.60
32753;DHT22;19121;52.428;10.816;2023-12-20T10:01:34;20.10;46.80
32753;DHT22;19121;52.428;10.816;2023-12-20T10:03:59;20.10;46.80
32753;DHT22;19121;52.428;10.816;2023-12-20T10:06:25;20.10;46.80
32753;DHT22;19121;52.428;10.816;2023-12-20T10:08:51;20.10;46.80
32753;DHT22;19121;52.428;10.816;2023-12-20T10:11:17;20.10;46.90
32753;DHT22;19121;52.428;10.816;2023-12-20T10:13:43;20.10;46.80
32753;DHT22;19121;52.428;10.816;2023-12-20T10:16:08;20.10;46.80
32753;DHT22;19121;52.428;10.816;2023-12-20T10:18:34;20.10;46.90
32753;DHT22;19121;52.428;10.816;2023-12-20T10:21:02;20.10;47.00
32753;DHT22;19121;52.428;10.816;2023-12-20T10:23:28;20.10;47.10
32753;DHT22;19121;52.428;10.816;2023-12-20T10:25:57;20.10;47.10
32753;DHT22;19121;52.428;10.816;2023-12-20T10:28:28;20.00;47.10
32753;DHT22;19121;52.428;10.816;2023-12-20T10:30:58;20.00;47.20
32753;DHT22;19121;52.428;10.816;2023-12-20T10:33:24;20.00;47.20
32753;DHT22;19121;52.428;10.816;2023-12-20T10:35:50;20.00;47.30
32753;DHT22;19121;52.428;10.816;2023-12-20T10:38:15;20.00;47.40
32753;DHT22;19121;52.428;10.816;2023-12-20T10:40:41;20.00;47.50
32753;DHT22;19121;52.428;10.816;2023-12-20T10:43:06;20.00;47.50
32753;DHT22;19121;52.428;10.816;2023-12-20T10:45:37;20.00;47.50
32753;DHT22;19121;52.428;10.816;2023-12-20T10:48:02;20.00;48.10
32753;DHT22;19121;52.428;10.816;2023-12-20T10:50:28;20.00;47.50
32753;DHT22;19121;52.428;10.816;2023-12-20T10:52:55;20.00;47.60
32753;DHT22;19121;52.428;10.816;2023-12-20T10:55:24;20.10;47.60
32753;DHT22;19121;52.428;10.816;2023-12-20T10:58:11;20.00;47.60
32753;DHT22;19121;52.428;10.816;2023-12-20T11:00:39;20.00;47.70
32753;DHT22;19121;52.428;10.816;2023-12-20T11:03:06;20.10;47.70
32753;DHT22;19121;52.428;10.816;2023-12-20T11:08:11;20.10;47.80
32753;DHT22;19121;52.428;10.816;2023-12-20T11:10:43;20.10;47.90
32753;DHT22;19121;52.428;10.816;2023-12-20T11:13:21;20.10;47.80
32753;DHT22;19121;52.428;10.816;2023-12-20T11:15:48;20.10;47.80
32753;DHT22;19121;52.428;10.816;2023-12-20T11:18:13;20.00;47.70
32753;DHT22;19121;52.428;10.816;2023-12-20T11:20:40;20.00;47.80
32753;DHT22;19121;52.428;10.816;2023-12-20T11:23:06;20.10;47.80
32753;DHT22;19121;52.428;10.816;2023-12-20T11:26:15;20.10;47.80
32753;DHT22;19121;52.428;10.816;2023-12-20T11:28:24;20.10;47.70
32753;DHT22;19121;52.428;10.816;2023-12-20T11:30:50;20.10;47.60
32753;DHT22;19121;52.428;10.816;2023-12-20T11:33:16;20.10;47.60
32753;DHT22;19121;52.428;10.816;2023-12-20T11:35:42;20.10;47.50
32753;DHT22;19121;52.428;10.816;2023-12-20T11:38:09;20.10;47.50
32753;DHT22;19121;52.428;10.816;2023-12-20T11:40:35;20.10;47.60
32753;DHT22;19121;52.428;10.816;2023-12-20T11:43:00;20.10;47.60
32753;DHT22;19121;52.428;10.816;2023-12-20T11:45:26;20.10;47.50
32753;DHT22;19121;52.428;10.816;2023-12-20T11:47:52;20.10;47.50
32753;DHT22;19121;52.428;10.816;2023-12-20T11:50:21;20.10;47.50
32753;DHT22;19121;52.428;10.816;2023-12-20T11:52:47;20.10;47.50
32753;DHT22;19121;52.428;10.816;2023-12-20T11:55:13;20.10;47.70
32753;DHT22;19121;52.428;10.816;2023-12-20T11:57:39;20.10;47.70
32753;DHT22;19121;52.428;10.816;2023-12-20T12:00:05;20.10;47.70
32753;DHT22;19121;52.428;10.816;2023-12-20T12:02:31;20.10;47.70
32753;DHT22;19121;52.428;10.816;2023-12-20T12:04:57;20.10;47.70
32753;DHT22;19121;52.428;10.816;2023-12-20T12:07:24;20.00;47.60
32753;DHT22;19121;52.428;10.816;2023-12-20T12:09:49;20.10;47.70
32753;DHT22;19121;52.428;10.816;2023-12-20T12:12:15;20.00;47.50
32753;DHT22;19121;52.428;10.816;2023-12-20T12:14:40;20.10;47.50
32753;DHT22;19121;52.428;10.816;2023-12-20T12:17:12;20.10;47.60
32753;DHT22;19121;52.428;10.816;2023-12-20T12:19:39;20.10;47.70
32753;DHT22;19121;52.428;10.816;2023-12-20T12:22:05;20.10;47.70
32753;DHT22;19121;52.428;10.816;2023-12-20T12:24:32;20.10;47.50
32753;DHT22;19121;52.428;10.816;2023-12-20T12:26:58;20.10;47.60
32753;DHT22;19121;52.428;10.816;2023-12-20T12:29:24;20.10;47.50
32753;DHT22;19121;52.428;10.816;2023-12-20T12:31:50;20.10;47.50
32753;DHT22;19121;52.428;10.816;2023-12-20T12:34:16;20.10;47.50
32753;DHT22;19121;52.428;10.816;2023-12-20T12:36:43;20.10;47.50
32753;DHT22;19121;52.428;10.816;2023-12-20T12:39:09;20.10;47.50
32753;DHT22;19121;52.428;10.816;2023-12-20T12:41:35;20.10;47.60
32753;DHT22;19121;52.428;10.816;2023-12-20T12:44:00;20.10;47.60
32753;DHT22;19121;52.428;10.816;2023-12-20T12:46:26;20.10;47.60
32753;DHT22;19121;52.428;10.816;2023-12-20T12:48:51;20.10;47.60
32753;DHT22;19121;52.428;10.816;2023-12-20T12:51:17;20.10;47.60
32753;DHT22;19121;52.428;10.816;2023-12-20T12:53:42;20.10;47.70
32753;DHT22;19121;52.428;10.816;2023-12-20T12:56:08;20.10;47.70
32753;DHT22;19121;52.428;10.816;2023-12-20T12:58:33;20.10;47.70
32753;DHT22;19121;52.428;10.816;2023-12-20T13:00:59;20.00;47.60
32753;DHT22;19121;52.428;10.816;2023-12-20T13:03:24;20.00;47.70
32753;DHT22;19121;52.428;10.816;2023-12-20T13:05:50;19.90;47.60
32753;DHT22;19121;52.428;10.816;2023-12-20T13:08:15;19.90;47.60
32753;DHT22;19121;52.428;10.816;2023-12-20T13:10:41;19.90;47.50
32753;DHT22;19121;52.428;10.816;2023-12-20T13:13:07;19.90;47.40
32753;DHT22;19121;52.428;10.816;2023-12-20T13:15:32;19.90;47.20
32753;DHT22;19121;52.428;10.816;2023-12-20T13:17:58;19.90;47.00
32753;DHT22;19121;52.428;10.816;2023-12-20T13:20:23;19.90;46.80
32753;DHT22;19121;52.428;10.816;2023-12-20T13:22:49;20.00;46.90
32753;DHT22;19121;52.428;10.816;2023-12-20T13:25:14;19.90;46.70
32753;DHT22;19121;52.428;10.816;2023-12-20T13:27:40;20.00;46.70
32753;DHT22;19121;52.428;10.816;2023-12-20T13:30:06;20.00;46.70
32753;DHT22;19121;52.428;10.816;2023-12-20T13:32:32;20.00;46.60
32753;DHT22;19121;52.428;10.816;2023-12-20T13:34:58;20.00;46.60
32753;DHT22;19121;52.428;10.816;2023-12-20T13:37:23;20.00;46.60
32753;DHT22;19121;52.428;10.816;2023-12-20T13:39:49;20.00;46.50
32753;DHT22;19121;52.428;10.816;2023-12-20T13:42:14;20.00;46.50
32753;DHT22;19121;52.428;10.816;2023-12-20T13:44:40;20.00;46.50
32753;DHT22;19121;52.428;10.816;2023-12-20T13:47:05;20.10;47.10
32753;DHT22;19121;52.428;10.816;2023-12-20T13:49:31;20.10;46.50
32753;DHT22;19121;52.428;10.816;2023-12-20T13:51:57;20.00;46.40
32753;DHT22;19121;52.428;10.816;2023-12-20T13:54:23;20.10;46.50
32753;DHT22;19121;52.428;10.816;2023-12-20T13:56:49;20.10;46.50
32753;DHT22;19121;52.428;10.816;2023-12-20T13:59:14;20.10;46.50
32753;DHT22;19121;52.428;10.816;2023-12-20T14:01:40;20.10;46.50
32753;DHT22;19121;52.428;10.816;2023-12-20T14:04:06;20.10;46.50
32753;DHT22;19121;52.428;10.816;2023-12-20T14:06:32;20.10;46.50
32753;DHT22;19121;52.428;10.816;2023-12-20T14:08:58;20.10;46.50
32753;DHT22;19121;52.428;10.816;2023-12-20T14:11:25;20.10;46.50
32753;DHT22;19121;52.428;10.816;2023-12-20T14:13:51;20.10;46.50
32753;DHT22;19121;52.428;10.816;2023-12-20T14:16:16;20.10;46.50
32753;DHT22;19121;52.428;10.816;2023-12-20T14:18:42;20.10;46.50
32753;DHT22;19121;52.428;10.816;2023-12-20T14:21:07;20.10;46.50
32753;DHT22;19121;52.428;10.816;2023-12-20T14:23:33;20.10;46.50
32753;DHT22;19121;52.428;10.816;2023-12-20T14:26:01;20.10;46.50
32753;DHT22;19121;52.428;10.816;2023-12-20T14:28:27;20.10;46.50
32753;DHT22;19121;52.428;10.816;2023-12-20T14:30:53;20.10;46.50
32753;DHT22;19121;52.428;10.816;2023-12-20T14:33:18;20.10;46.50
32753;DHT22;19121;52.428;10.816;2023-12-20T14:35:46;20.10;46.40
32753;DHT22;19121;52.428;10.816;2023-12-20T14:38:12;20.10;46.40
32753;DHT22;19121;52.428;10.816;2023-12-20T14:40:40;20.10;46.50
32753;DHT22;19121;52.428;10.816;2023-12-20T14:43:06;20.10;46.50
32753;DHT22;19121;52.428;10.816;2023-12-20T14:45:31;20.10;46.50
32753;DHT22;19121;52.428;10.816;2023-12-20T14:47:57;20.10;46.50
32753;DHT22;19121;52.428;10.816;2023-12-20T14:50:23;20.10;46.60
32753;DHT22;19121;52.428;10.816;2023-12-20T14:52:49;20.10;46.50
32753;DHT22;19121;52.428;10.816;2023-12-20T14:55:15;20.10;46.70
32753;DHT22;19121;52.428;10.816;2023-12-20T14:57:40;20.10;46.60
32753;DHT22;19121;52.428;10.816;2023-12-20T15:00:06;20.10;46.60
32753;DHT22;19121;52.428;10.816;2023-12-20T15:02:32;20.10;46.70
32753;DHT22;19121;52.428;10.816;2023-12-20T15:04:57;20.10;46.60
32753;DHT22;19121;52.428;10.816;2023-12-20T15:07:23;20.10;46.60
32753;DHT22;19121;52.428;10.816;2023-12-20T15:09:48;20.10;46.60